MDT,Max TemperatureF,Mean TemperatureF,Min TemperatureF,Max Dew PointF,MeanDew PointF,Min DewpointF,Max Humidity, Mean Humidity, Min Humidity, Max Sea Level PressureIn, Mean Sea Level PressureIn, Min Sea Level PressureIn, Max VisibilityMiles, Mean VisibilityMiles, Min VisibilityMiles, Max Wind SpeedMPH, Mean Wind SpeedMPH, Max Gust SpeedMPH,PrecipitationIn, CloudCover, Events, WindDirDegrees
2011-10-1,79,61,43,40,34,30,60,37,18,30.15,29.95,29.89,10,10,10,15,7,,0.00,1,Thunderstorm,131
2011-10-2,70,58,47,44,38,34,63,46,26,30.01,29.95,29.89,10,10,10,13,7,,0.00,3,,165
2011-10-3,73,57,41,42,37,34,76,48,24,30.15,29.96,29.79,10,9,2,20,5,52,0.01,2,Rain-Thunderstorm,164
2011-10-4,65,58,50,47,40,35,80,53,38,29.90,29.74,29.62,10,10,5,23,9,,0.01,4,Rain,174
2011-10-5,55,49,43,46,42,35,97,82,45,29.72,29.53,29.40,10,8,1,16,7,,0.12,7,Rain,87
2011-10-6,44,37,30,43,32,30,100,94,87,29.78,29.64,29.42,10,3,0,18,10,,0.18,8,Fog-Rain-Snow,132
2011-10-7,37,34,30,35,31,28,100,93,81,30.06,29.88,29.74,10,5,1,12,8,,0.27,8,Snow,160
2011-10-8,48,40,31,38,33,30,100,88,59,30.23,30.16,30.04,10,6,0,7,4,,0.04,7,Fog-Rain,61
2011-10-9,50,40,30,35,32,28,96,80,52,30.26,30.11,29.97,10,10,10,8,3,,0.00,6,,82
2011-10-10,52,44,36,39,36,32,93,79,47,29.96,29.88,29.78,10,9,5,15,8,,0.07,7,Rain,174
2011-10-11,52,46,39,41,38,34,93,82,56,30.03,29.89,29.78,10,9,4,20,10,,0.06,7,Rain,183
2011-10-12,52,40,28,33,30,25,93,69,43,30.21,30.16,30.06,10,10,10,13,6,,0.00,1,,156
2011-10-13,55,46,37,34,29,25,71,51,31,30.23,30.05,29.94,10,10,10,12,8,,0.00,5,,165
2011-10-14,63,54,46,37,34,30,68,47,34,29.99,29.93,29.89,10,10,10,15,9,,0.00,4,,185
2011-10-15,64,56,48,37,35,33,59,48,35,29.91,29.88,29.85,10,10,10,20,12,,0.00,1,,179
2011-10-16,56,49,39,46,41,36,93,78,47,30.11,30.00,29.87,10,7,2,21,9,26,0.12,6,Rain-Thunderstorm,154
2011-10-17,48,40,31,37,31,22,97,77,35,30.39,30.24,30.02,10,9,4,17,9,,0.06,4,Rain,2
2011-10-18,54,39,24,34,28,21,92,67,35,30.46,30.38,30.26,10,7,0,8,3,,0.00,0,,290
2011-10-19,57,40,23,33,24,18,88,47,23,30.22,30.07,29.93,10,6,0,10,5,,0.00,1,,338
2011-10-20,55,42,28,37,31,25,89,69,42,30.20,30.10,30.02,10,10,10,8,3,,0.00,0,,127
2011-10-21,56,46,36,38,34,31,86,63,39,30.18,30.13,30.07,10,10,10,13,6,,0.00,4,,189
2011-10-22,55,43,31,38,33,29,96,75,42,30.34,30.23,30.11,10,8,0,16,5,,0.00,2,Fog,169
2011-10-23,59,48,36,36,33,31,83,61,35,30.29,30.12,30.01,10,10,10,15,10,,0.00,0,,162
2011-10-24,56,48,39,33,30,22,73,48,35,29.99,29.88,29.81,10,10,10,18,8,,0.00,2,,188
2011-10-25,41,33,19,27,19,9,78,57,28,30.23,30.09,29.94,10,10,10,10,7,,0.00,4,,329
2011-10-26,38,26,13,14,9,2,84,58,22,30.36,30.27,30.21,10,10,10,10,5,,0.00,0,,161
2011-10-27,43,32,22,15,12,7,69,47,25,30.29,30.20,30.11,10,10,10,10,5,,0.00,2,,179
2011-10-28,45,30,16,19,15,11,85,56,25,30.41,30.28,30.10,10,10,10,10,4,,0.00,1,,105
2011-10-29,50,41,32,26,18,8,76,41,25,30.17,30.09,30.01,10,10,10,18,10,,0.00,3,,176
2011-10-30,52,41,30,28,27,25,82,65,38,30.31,30.22,30.14,10,10,10,12,7,,0.00,0,,160
2011-10-31,50,41,32,35,29,19,76,56,45,30.12,29.99,29.89,10,10,10,18,10,,0.00,4,Rain,184